Time;durP1;ratioP1;P1;durP2;ratioP2;P2;SDS_P1;SDS_P2;PMS_P1;PMS_P2;Temp;Humidity;BMP_temperature;BMP_pressure;BME280_temperature;BME280_humidity;BME280_pressure;Samples;Min_cycle;Max_cycle;Signal;HPM_P1;HPM_P2
2023/08/21 00:01:03;;;;;;;;;;;;;;;26.04;64.43;101716.41;3969067;29;20028;-69
2023/08/21 00:03:06;;;;;;;;;;;;;;;26.01;64.54;101716.94;3970301;29;20036;-69
2023/08/21 00:05:09;;;;;;;;;;;;;;;26.00;64.66;101716.09;3969562;29;19937;-69
2023/08/21 00:07:11;;;;;;;;;;;;;;;25.99;64.75;101711.66;3968843;29;20020;-70
2023/08/21 00:09:18;;;;;;;;;;;;;;;25.97;65.02;101713.84;3970780;29;19941;-70
2023/08/21 00:11:22;;;;;;;;;;;;;;;25.95;65.11;101707.69;3969118;29;20029;-70
2023/08/21 00:13:24;;;;;;;;;;;;;;;25.92;64.90;101713.72;3958810;29;20028;-69
2023/08/21 00:15:31;;;;;;;;;;;;;;;25.92;65.03;101708.19;3969475;29;19940;-70
2023/08/21 00:17:42;;;;;;;;;;;;;;;25.90;65.06;101708.44;3968946;29;20020;-70
2023/08/21 00:19:44;;;;;;;;;;;;;;;25.87;65.40;101711.72;3969332;29;19933;-69
2023/08/21 00:21:47;;;;;;;;;;;;;;;25.86;65.42;101714.75;3974743;29;20003;-70
2023/08/21 00:23:49;;;;;;;;;;;;;;;25.85;65.19;101715.84;3969320;29;20027;-68
2023/08/21 00:25:53;;;;;;;;;;;;;;;25.82;65.34;101711.66;3969012;29;20048;-69
2023/08/21 00:27:56;;;;;;;;;;;;;;;25.80;65.41;101715.78;3969309;29;20040;-70
2023/08/21 00:30:00;;;;;;;;;;;;;;;25.77;65.27;101711.59;3969096;29;20621;-69
2023/08/21 00:32:02;;;;;;;;;;;;;;;25.77;65.88;101711.59;3968622;29;20834;-69
2023/08/21 00:34:04;;;;;;;;;;;;;;;25.77;65.49;101719.03;3959326;29;20020;-68
2023/08/21 00:36:08;;;;;;;;;;;;;;;25.74;66.05;101717.66;3969506;29;20031;-68
2023/08/21 00:38:10;;;;;;;;;;;;;;;25.72;65.86;101719.81;3958962;29;20009;-69
2023/08/21 00:40:18;;;;;;;;;;;;;;;25.69;65.90;101715.66;3959301;29;20401;-68
2023/08/21 00:42:20;;;;;;;;;;;;;;;25.67;66.08;101719.75;3952134;30;20033;-69
2023/08/21 00:44:23;;;;;;;;;;;;;;;25.66;66.20;101718.09;3971127;29;20424;-69
2023/08/21 00:46:27;;;;;;;;;;;;;;;25.63;65.99;101710.31;3968111;29;20091;-69
2023/08/21 00:48:29;;;;;;;;;;;;;;;25.61;66.17;101713.31;3968487;29;20032;-69
2023/08/21 00:50:31;;;;;;;;;;;;;;;25.58;65.93;101708.31;3968581;29;20112;-69
2023/08/21 00:52:34;;;;;;;;;;;;;;;25.56;66.19;101715.16;3968669;29;20020;-69
2023/08/21 00:54:37;;;;;;;;;;;;;;;25.54;66.48;101710.72;3974389;29;20047;-69
2023/08/21 00:56:39;;;;;;;;;;;;;;;25.53;66.18;101714.59;3968859;29;20619;-69
2023/08/21 00:58:41;;;;;;;;;;;;;;;25.52;66.29;101712.09;3966633;29;20035;-69
2023/08/21 01:00:48;;;;;;;;;;;;;;;25.50;66.18;101714.25;3967896;29;19929;-68
2023/08/21 01:02:50;;;;;;;;;;;;;;;25.49;66.48;101709.81;3968398;29;20020;-68
2023/08/21 01:04:52;;;;;;;;;;;;;;;25.47;66.31;101712.84;3974211;29;20032;-68
2023/08/21 01:06:58;;;;;;;;;;;;;;;25.46;66.28;101713.09;3968464;29;20460;-68
2023/08/21 01:09:01;;;;;;;;;;;;;;;25.44;66.61;101720.78;3969059;29;20044;-68
2023/08/21 01:11:06;;;;;;;;;;;;;;;25.42;66.20;101725.75;3968527;29;20020;-68
2023/08/21 01:13:12;;;;;;;;;;;;;;;25.41;66.50;101719.38;3967699;29;20412;-68
2023/08/21 01:15:14;;;;;;;;;;;;;;;25.39;66.33;101721.53;3968341;29;20380;-68
2023/08/21 01:17:19;;;;;;;;;;;;;;;25.38;66.46;101722.66;3968215;29;20056;-69
2023/08/21 01:19:32;;;;;;;;;;;;;;;25.37;66.83;101726.50;3958982;29;20413;-69
2023/08/21 01:21:35;;;;;;;;;;;;;;;25.34;66.62;101719.56;3967883;29;19937;-69
2023/08/21 01:23:41;;;;;;;;;;;;;;;25.33;66.81;101717.06;3958876;29;20032;-69
2023/08/21 01:25:44;;;;;;;;;;;;;;;25.31;66.66;101716.44;3959105;29;20028;-69
2023/08/21 01:27:47;;;;;;;;;;;;;;;25.31;66.89;101708.16;3967841;29;20008;-69
2023/08/21 01:29:49;;;;;;;;;;;;;;;25.31;67.24;101719.22;3968757;29;20016;-70
2023/08/21 01:31:56;;;;;;;;;;;;;;;25.29;66.74;101718.63;3981724;29;20023;-68
2023/08/21 01:33:59;;;;;;;;;;;;;;;25.27;66.77;101705.03;3968149;29;20043;-68
2023/08/21 01:36:03;;;;;;;;;;;;;;;25.26;66.96;101708.88;3968745;29;20017;-68
2023/08/21 01:38:08;;;;;;;;;;;;;;;25.29;66.79;101711.16;3968387;29;19937;-68
2023/08/21 01:40:12;;;;;;;;;;;;;;;25.28;67.00;101701.22;3972614;29;19935;-70
2023/08/21 01:42:14;;;;;;;;;;;;;;;25.27;66.88;101702.28;3967997;29;19937;-68
2023/08/21 01:44:17;;;;;;;;;;;;;;;25.25;67.28;101701.69;3966928;29;20033;-68
2023/08/21 01:46:19;;;;;;;;;;;;;;;25.25;67.36;101707.22;3968282;29;20675;-68
2023/08/21 01:48:21;;;;;;;;;;;;;;;25.25;66.98;101706.38;3973334;29;20603;-69
2023/08/21 01:50:23;;;;;;;;;;;;;;;25.25;67.29;101701.69;3966135;29;20036;-68
2023/08/21 01:52:25;;;;;;;;;;;;;;;25.24;67.20;101702.78;3969230;29;20472;-69
2023/08/21 01:54:29;;;;;;;;;;;;;;;25.24;67.50;101704.72;3966910;29;20037;-68
2023/08/21 01:56:36;;;;;;;;;;;;;;;25.23;67.15;101703.03;3968154;29;20024;-68
2023/08/21 01:58:40;;;;;;;;;;;;;;;25.22;67.65;101695.81;3973229;29;20020;-69
2023/08/21 02:00:42;;;;;;;;;;;;;;;25.21;67.38;101699.69;3966455;29;20034;-68
2023/08/21 02:02:47;;;;;;;;;;;;;;;25.19;67.47;101699.94;3967466;29;19979;-68
2023/08/21 02:04:51;;;;;;;;;;;;;;;25.17;67.47;101694.66;3968106;29;20310;-69
2023/08/21 02:06:53;;;;;;;;;;;;;;;25.15;67.74;101696.81;3967884;29;20072;-69
2023/08/21 02:08:58;;;;;;;;;;;;;;;25.15;67.32;101701.50;3967813;29;20012;-68
2023/08/21 02:11:02;;;;;;;;;;;;;;;25.13;67.86;101700.94;3968329;29;20020;-68
2023/08/21 02:13:06;;;;;;;;;;;;;;;25.10;67.73;101696.75;3960434;29;20020;-68
2023/08/21 02:15:10;;;;;;;;;;;;;;;25.10;67.81;101691.22;3976342;29;20480;-67
2023/08/21 02:17:12;;;;;;;;;;;;;;;25.10;67.96;101695.91;3969146;29;20028;-69
2023/08/21 02:19:14;;;;;;;;;;;;;;;25.08;68.12;101687.88;3971348;29;20023;-69
2023/08/21 02:21:16;;;;;;;;;;;;;;;25.08;68.17;101685.13;3971233;29;20029;-69
2023/08/21 02:23:21;;;;;;;;;;;;;;;25.05;68.29;101690.28;3971911;29;19936;-68
2023/08/21 02:25:23;;;;;;;;;;;;;;;25.02;68.27;101697.16;3971158;29;20025;-68
2023/08/21 02:27:25;;;;;;;;;;;;;;;25.02;68.28;101691.66;3969585;29;20019;-68
2023/08/21 02:29:29;;;;;;;;;;;;;;;25.03;68.23;101687.78;3971757;29;20032;-69
2023/08/21 02:31:33;;;;;;;;;;;;;;;25.04;68.51;101692.22;3970631;29;20029;-68
2023/08/21 02:33:35;;;;;;;;;;;;;;;25.03;68.57;101687.78;3970793;29;20029;-68
2023/08/21 02:35:36;;;;;;;;;;;;;;;25.02;68.40;101691.66;3970928;29;20029;-68
2023/08/21 02:37:39;;;;;;;;;;;;;;;25.02;68.03;101694.41;3970734;29;20020;-68
2023/08/21 02:39:41;;;;;;;;;;;;;;;25.00;68.56;101689.13;3984564;29;19945;-69
2023/08/21 02:41:46;;;;;;;;;;;;;;;25.02;68.29;101694.41;3990701;29;20593;-68
2023/08/21 02:43:49;;;;;;;;;;;;;;;25.04;68.29;101685.88;3969532;29;19933;-68
2023/08/21 02:45:52;;;;;;;;;;;;;;;25.04;68.39;101697.75;3969736;29;20051;-68
2023/08/21 02:47:54;;;;;;;;;;;;;;;25.03;68.13;101693.28;3969456;29;20033;-68
2023/08/21 02:49:56;;;;;;;;;;;;;;;25.00;68.38;101686.38;3970341;29;20028;-68
2023/08/21 02:52:01;;;;;;;;;;;;;;;25.00;68.27;101688.31;3971592;29;20036;-68
2023/08/21 02:54:06;;;;;;;;;;;;;;;24.99;68.53;101689.38;3970748;29;20012;-68
2023/08/21 02:56:09;;;;;;;;;;;;;;;24.98;68.59;101688.56;3970507;29;20025;-68
2023/08/21 02:58:11;;;;;;;;;;;;;;;24.98;68.70;101688.56;3970474;29;20016;-69
2023/08/21 03:00:14;;;;;;;;;;;;;;;24.98;68.50;101688.56;3970133;29;20359;-68
2023/08/21 03:02:18;;;;;;;;;;;;;;;24.98;68.71;101685.78;3970473;29;20428;-67
2023/08/21 03:04:21;;;;;;;;;;;;;;;24.99;68.52;101686.63;3970825;29;19936;-68
2023/08/21 03:06:26;;;;;;;;;;;;;;;24.97;68.54;101681.34;3983633;29;20032;-68
2023/08/21 03:08:28;;;;;;;;;;;;;;;24.97;68.41;101681.34;3971047;29;20032;-69
2023/08/21 03:10:33;;;;;;;;;;;;;;;24.98;68.47;101679.41;3975184;29;20028;-68
2023/08/21 03:12:37;;;;;;;;;;;;;;;24.98;68.02;101682.16;3968629;29;20028;-68
2023/08/21 03:14:39;;;;;;;;;;;;;;;24.96;68.53;101676.91;3960237;29;20466;-68
2023/08/21 03:16:47;;;;;;;;;;;;;;;24.96;68.60;101684.34;3969899;29;19929;-68
2023/08/21 03:18:57;;;;;;;;;;;;;;;24.96;68.47;101684.34;3955539;29;20934;-68
2023/08/21 03:21:01;;;;;;;;;;;;;;;24.98;68.72;101679.41;3957445;29;20036;-68
2023/08/21 03:23:04;;;;;;;;;;;;;;;24.97;68.34;101686.03;3974804;29;20024;-68
2023/08/21 03:25:06;;;;;;;;;;;;;;;24.95;67.92;101685.44;3969321;29;19933;-69
2023/08/21 03:27:08;;;;;;;;;;;;;;;24.93;68.04;101691.22;3970226;29;20039;-69
2023/08/21 03:29:10;;;;;;;;;;;;;;;24.91;68.40;101687.88;3974805;29;19933;-68
2023/08/21 03:31:13;;;;;;;;;;;;;;;24.90;68.19;101679.81;3969346;29;20011;-68
2023/08/21 03:33:15;;;;;;;;;;;;;;;24.90;68.30;101679.81;3975256;29;19962;-68
2023/08/21 03:35:18;;;;;;;;;;;;;;;24.90;68.63;101682.59;3970653;29;20016;-68
2023/08/21 03:37:21;;;;;;;;;;;;;;;24.89;68.48;101679.00;3975237;29;20334;-69
2023/08/21 03:39:23;;;;;;;;;;;;;;;24.88;68.02;101677.31;3970824;29;19940;-69
2023/08/21 03:41:25;;;;;;;;;;;;;;;24.87;68.09;101681.16;3960002;29;20036;-69
2023/08/21 03:43:27;;;;;;;;;;;;;;;24.87;68.32;101674.81;3969391;29;20013;-69
2023/08/21 03:45:29;;;;;;;;;;;;;;;24.85;67.94;101682.50;3966689;29;20405;-70
2023/08/21 03:47:31;;;;;;;;;;;;;;;24.85;68.16;101685.28;3970265;29;20061;-68
2023/08/21 03:49:38;;;;;;;;;;;;;;;24.82;68.28;101678.31;3968386;29;20024;-68
2023/08/21 03:51:41;;;;;;;;;;;;;;;24.81;68.23;101679.38;3969521;29;20045;-68
2023/08/21 03:53:45;;;;;;;;;;;;;;;24.80;68.07;101688.78;3975416;29;20427;-68
2023/08/21 03:55:50;;;;;;;;;;;;;;;24.77;68.41;101681.81;3969118;29;19937;-69
2023/08/21 03:57:52;;;;;;;;;;;;;;;24.76;68.79;101688.44;3969479;29;20028;-68
2023/08/21 03:59:54;;;;;;;;;;;;;;;24.75;68.33;101688.69;3967449;29;20032;-68
2023/08/21 04:01:56;;;;;;;;;;;;;;;24.73;68.50;101690.84;3970293;29;20020;-68
2023/08/21 04:03:58;;;;;;;;;;;;;;;24.71;69.09;101693.88;3969883;29;20020;-68
2023/08/21 04:06:00;;;;;;;;;;;;;;;24.71;69.09;101687.50;3968591;29;20491;-68
2023/08/21 04:08:06;;;;;;;;;;;;;;;24.69;69.19;101692.47;3965784;29;20016;-68
2023/08/21 04:10:10;;;;;;;;;;;;;;;24.68;68.83;101697.13;3970164;29;20029;-69
2023/08/21 04:12:15;;;;;;;;;;;;;;;24.67;69.06;101695.47;3968783;29;20016;-69
2023/08/21 04:14:20;;;;;;;;;;;;;;;24.66;69.28;101702.06;3967801;29;19991;-69
2023/08/21 04:16:23;;;;;;;;;;;;;;;24.67;69.36;101700.13;3974073;29;20020;-69
2023/08/21 04:18:25;;;;;;;;;;;;;;;24.66;68.93;101704.84;3968723;29;20031;-69
2023/08/21 04:20:26;;;;;;;;;;;;;;;24.64;69.35;101705.09;3969177;29;20032;-69
2023/08/21 04:22:27;;;;;;;;;;;;;;;24.61;69.58;101708.34;3959864;29;20486;-69
2023/08/21 04:24:31;;;;;;;;;;;;;;;24.61;69.74;101708.34;3958982;29;20036;-69
2023/08/21 04:26:33;;;;;;;;;;;;;;;24.60;69.29;101709.41;3969874;29;20376;-69
2023/08/21 04:28:35;;;;;;;;;;;;;;;24.59;69.46;101706.91;3982480;29;20379;-69
2023/08/21 04:30:39;;;;;;;;;;;;;;;24.58;69.70;101706.06;3982184;29;20069;-69
2023/08/21 04:32:41;;;;;;;;;;;;;;;24.58;69.80;101714.34;3969049;29;20028;-69
2023/08/21 04:34:44;;;;;;;;;;;;;;;24.58;69.37;101716.28;3973675;29;20037;-69
2023/08/21 04:36:46;;;;;;;;;;;;;;;24.55;69.82;101714.00;3968454;29;20028;-69
2023/08/21 04:38:48;;;;;;;;;;;;;;;24.52;69.64;101712.56;3969621;29;20064;-69
2023/08/21 04:40:51;;;;;;;;;;;;;;;24.52;70.25;101722.75;3958790;29;20028;-69
2023/08/21 04:42:53;;;;;;;;;;;;;;;24.52;70.29;101729.13;3973897;29;20076;-69
2023/08/21 04:44:57;;;;;;;;;;;;;;;24.53;69.85;101716.13;3959121;29;20024;-69
2023/08/21 04:47:18;;;;;;;;;;;;;;;24.52;70.13;101717.25;3959262;29;20072;-69
2023/08/21 04:49:20;;;;;;;;;;;;;;;24.52;70.20;101720.00;3969210;29;20020;-69
2023/08/21 04:51:22;;;;;;;;;;;;;;;24.50;70.00;101725.78;3966710;29;20037;-69
2023/08/21 04:53:24;;;;;;;;;;;;;;;24.49;70.47;101724.09;3981304;29;20062;-68
2023/08/21 04:55:27;;;;;;;;;;;;;;;24.50;70.60;101722.16;3982396;29;20032;-68
2023/08/21 04:57:32;;;;;;;;;;;;;;;24.49;70.47;101723.25;3968668;29;20714;-69
2023/08/21 04:59:35;;;;;;;;;;;;;;;24.47;70.22;101727.09;3982943;29;20444;-68
2023/08/21 05:01:37;;;;;;;;;;;;;;;24.46;70.32;101728.16;3987996;29;20016;-68
2023/08/21 05:03:39;;;;;;;;;;;;;;;24.42;70.84;101734.44;3982153;29;20077;-68
2023/08/21 05:05:41;;;;;;;;;;;;;;;24.37;70.93;101729.66;3973766;29;20444;-68
2023/08/21 05:07:45;;;;;;;;;;;;;;;24.34;70.76;101730.16;3974124;29;19940;-69
2023/08/21 05:09:47;;;;;;;;;;;;;;;24.35;71.06;101731.81;3973752;29;20370;-68
2023/08/21 05:11:51;;;;;;;;;;;;;;;24.33;71.11;101733.16;3982120;29;20495;-68
2023/08/21 05:13:55;;;;;;;;;;;;;;;24.32;71.15;101729.56;3988589;29;20028;-68
2023/08/21 05:15:58;;;;;;;;;;;;;;;24.29;71.25;101732.81;3973747;29;20024;-68
2023/08/21 05:18:04;;;;;;;;;;;;;;;24.28;71.00;101733.91;3980807;29;20371;-69
2023/08/21 05:20:08;;;;;;;;;;;;;;;24.25;71.34;101735.22;3982519;29;20020;-69
2023/08/21 05:22:10;;;;;;;;;;;;;;;24.23;71.75;101734.63;3967258;29;20016;-69
2023/08/21 05:24:15;;;;;;;;;;;;;;;24.23;71.29;101737.41;3958408;29;20016;-70
2023/08/21 05:26:24;;;;;;;;;;;;;;;24.23;71.17;101736.53;3968103;29;20060;-69
2023/08/21 05:28:26;;;;;;;;;;;;;;;24.22;71.12;101734.88;3974377;29;19959;-68
2023/08/21 05:30:29;;;;;;;;;;;;;;;24.22;71.34;101734.88;3967650;29;20046;-68
2023/08/21 05:32:32;;;;;;;;;;;;;;;24.23;71.57;101739.28;3973306;29;20028;-69
2023/08/21 05:34:34;;;;;;;;;;;;;;;24.19;71.38;101733.44;3967169;29;20037;-69
2023/08/21 05:36:37;;;;;;;;;;;;;;;24.15;71.94;101734.16;3973412;29;20032;-68
2023/08/21 05:38:39;;;;;;;;;;;;;;;24.12;71.55;101729.97;3972658;29;20044;-69
2023/08/21 05:40:41;;;;;;;;;;;;;;;24.11;71.86;101733.81;3968474;29;20027;-68
2023/08/21 05:42:43;;;;;;;;;;;;;;;24.10;72.07;101732.13;3958573;29;20020;-68
2023/08/21 05:44:46;;;;;;;;;;;;;;;24.11;71.93;101737.41;3966260;29;20058;-68
2023/08/21 05:46:49;;;;;;;;;;;;;;;24.11;71.92;101745.69;3952633;29;20623;-68
2023/08/21 05:48:52;;;;;;;;;;;;;;;24.13;71.84;101750.13;3952260;29;20037;-69
2023/08/21 05:50:54;;;;;;;;;;;;;;;24.13;71.92;101753.72;3972966;29;20051;-68
2023/08/21 05:52:57;;;;;;;;;;;;;;;24.13;72.02;101744.63;3967353;29;20032;-69
2023/08/21 05:55:05;;;;;;;;;;;;;;;24.13;71.99;101745.44;3972901;29;20652;-68
2023/08/21 05:57:08;;;;;;;;;;;;;;;24.15;71.85;101751.56;3968062;29;20028;-68
2023/08/21 05:59:11;;;;;;;;;;;;;;;24.15;72.01;101748.78;3958302;29;20029;-67
2023/08/21 06:01:13;;;;;;;;;;;;;;;24.16;72.52;101750.47;3968898;29;20346;-68
2023/08/21 06:03:16;;;;;;;;;;;;;;;24.16;72.30;101756.00;3968205;29;20129;-68
2023/08/21 06:05:48;;;;;;;;;;;;;;;24.15;72.11;101756.25;3961798;29;20019;-68
2023/08/21 06:07:51;;;;;;;;;;;;;;;24.15;71.94;101747.97;3967196;29;20015;-68
2023/08/21 06:09:53;;;;;;;;;;;;;;;24.19;71.96;101754.69;3965440;29;19936;-70
2023/08/21 06:11:55;;;;;;;;;;;;;;;24.20;71.85;101748.94;3968647;29;20020;-70
2023/08/21 06:13:58;;;;;;;;;;;;;;;24.22;71.73;101754.19;3972705;29;20027;-69
2023/08/21 06:16:00;;;;;;;;;;;;;;;24.24;72.30;101743.75;3966728;29;20399;-68
2023/08/21 06:18:03;;;;;;;;;;;;;;;24.21;72.41;101747.81;3973358;29;20458;-68
2023/08/21 06:20:08;;;;;;;;;;;;;;;24.19;71.89;101752.75;3968309;29;20028;-68
2023/08/21 06:22:10;;;;;;;;;;;;;;;24.20;71.97;101750.81;3963527;29;20029;-68
2023/08/21 06:24:12;;;;;;;;;;;;;;;24.23;72.12;101753.09;3966029;29;20040;-69
2023/08/21 06:26:14;;;;;;;;;;;;;;;24.25;71.91;101749.03;3970535;29;20015;-68
2023/08/21 06:28:17;;;;;;;;;;;;;;;24.27;71.79;101757.88;3967938;29;20021;-68
2023/08/21 06:30:19;;;;;;;;;;;;;;;24.30;71.85;101753.81;3967660;29;19959;-69
2023/08/21 06:32:21;;;;;;;;;;;;;;;24.32;71.41;101751.63;3967805;29;20063;-69
2023/08/21 06:34:23;;;;;;;;;;;;;;;24.34;71.61;101754.16;3972877;29;20028;-68
2023/08/21 06:36:26;;;;;;;;;;;;;;;24.34;71.58;101752.25;3968191;29;20036;-69
2023/08/21 06:38:30;;;;;;;;;;;;;;;24.36;71.60;101749.25;3968640;29;20037;-68
2023/08/21 06:40:31;;;;;;;;;;;;;;;24.39;70.88;101757.00;3968509;29;20034;-69
2023/08/21 06:42:33;;;;;;;;;;;;;;;24.40;70.65;101762.28;3966689;29;20024;-68
2023/08/21 06:44:35;;;;;;;;;;;;;;;24.41;70.48;101765.91;3969384;29;20012;-69
2023/08/21 06:46:37;;;;;;;;;;;;;;;24.45;70.43;101761.56;3967365;29;20045;-68
2023/08/21 06:48:40;;;;;;;;;;;;;;;24.46;70.27;101764.06;3966189;29;20036;-68
2023/08/21 06:50:42;;;;;;;;;;;;;;;24.46;69.68;101766.00;3967321;29;20539;-68
2023/08/21 06:52:45;;;;;;;;;;;;;;;24.46;69.77;101766.81;3968068;29;20020;-68
2023/08/21 06:54:47;;;;;;;;;;;;;;;24.46;69.54;101766.81;3967895;29;20017;-69
2023/08/21 06:56:49;;;;;;;;;;;;;;;24.50;69.80;101766.34;3967182;29;20032;-69
2023/08/21 06:58:51;;;;;;;;;;;;;;;24.50;69.26;101769.97;3968616;29;20020;-68
2023/08/21 07:00:54;;;;;;;;;;;;;;;24.51;69.49;101779.91;3971040;29;20012;-68
2023/08/21 07:02:56;;;;;;;;;;;;;;;24.52;69.47;101767.78;3970577;29;20505;-68
2023/08/21 07:04:58;;;;;;;;;;;;;;;24.53;69.40;101768.59;3970020;29;20028;-68
2023/08/21 07:07:01;;;;;;;;;;;;;;;24.54;69.62;101765.59;3970060;29;20056;-69
2023/08/21 07:09:04;;;;;;;;;;;;;;;24.56;69.53;101768.97;3971239;29;20036;-69
2023/08/21 07:11:07;;;;;;;;;;;;;;;24.60;69.78;101769.34;3970206;29;20441;-69
2023/08/21 07:13:09;;;;;;;;;;;;;;;24.62;70.27;101768.03;3970210;29;20021;-69
2023/08/21 07:15:11;;;;;;;;;;;;;;;24.64;70.46;101767.78;3971071;29;20024;-68
2023/08/21 07:17:14;;;;;;;;;;;;;;;24.66;70.83;101762.84;3969756;29;20468;-68
2023/08/21 07:19:16;;;;;;;;;;;;;;;24.70;70.71;101765.94;3970343;29;20456;-68
2023/08/21 07:21:18;;;;;;;;;;;;;;;24.73;70.60;101763.50;3970272;29;20020;-68
2023/08/21 07:23:20;;;;;;;;;;;;;;;24.78;71.38;101768.28;3970541;29;20024;-69
2023/08/21 07:25:24;;;;;;;;;;;;;;;24.79;70.81;101762.53;3970251;29;20449;-69
2023/08/21 07:27:26;;;;;;;;;;;;;;;24.83;71.31;101760.94;3971570;29;20433;-68
2023/08/21 07:29:28;;;;;;;;;;;;;;;24.85;70.33;101762.63;3969080;29;20469;-68
2023/08/21 07:31:31;;;;;;;;;;;;;;;24.86;69.55;101762.38;3969811;29;19970;-69
2023/08/21 07:33:33;;;;;;;;;;;;;;;24.90;69.11;101769.06;3970154;29;20389;-68
2023/08/21 07:35:39;;;;;;;;;;;;;;;24.93;69.26;101767.75;3969546;29;20025;-69
2023/08/21 07:37:41;;;;;;;;;;;;;;;24.97;69.18;101778.06;3969218;29;20316;-68
2023/08/21 07:39:43;;;;;;;;;;;;;;;24.99;68.49;101770.34;3970368;29;20016;-69
2023/08/21 07:41:46;;;;;;;;;;;;;;;25.05;68.42;101768.53;3969326;29;20040;-69
2023/08/21 07:43:48;;;;;;;;;;;;;;;25.08;67.76;101781.84;3969688;29;20028;-68
2023/08/21 07:45:50;;;;;;;;;;;;;;;25.12;67.68;101783.00;3969724;29;20371;-69
2023/08/21 07:47:53;;;;;;;;;;;;;;;25.16;67.41;101769.53;3969417;29;20036;-68
2023/08/21 07:49:55;;;;;;;;;;;;;;;25.19;66.77;101775.41;3969185;29;20459;-68
2023/08/21 07:51:57;;;;;;;;;;;;;;;25.23;66.64;101781.25;3969651;29;19976;-68
2023/08/21 07:53:59;;;;;;;;;;;;;;;25.28;66.15;101783.28;3969313;29;20458;-67
2023/08/21 07:56:26;;;;;;;;;;;;;;;25.30;65.39;101781.16;3969727;29;20338;-69
2023/08/21 07:58:30;;;;;;;;;;;;;;;25.32;65.58;101788.09;3969655;29;20452;-68
2023/08/21 08:00:32;;;;;;;;;;;;;;;25.35;65.94;101793.13;3970103;29;20018;-69
2023/08/21 08:02:34;;;;;;;;;;;;;;;25.39;66.00;101790.66;3969918;29;20024;-69
2023/08/21 08:04:36;;;;;;;;;;;;;;;25.42;65.14;101787.41;3970308;29;20016;-69
2023/08/21 08:06:38;;;;;;;;;;;;;;;25.44;64.86;101787.16;3968609;29;20025;-69
2023/08/21 08:08:43;;;;;;;;;;;;;;;25.47;64.59;101786.66;3970630;29;20301;-69
2023/08/21 08:10:45;;;;;;;;;;;;;;;25.48;64.45;101786.41;3958430;29;20028;-68
2023/08/21 08:12:47;;;;;;;;;;;;;;;25.51;64.59;101785.06;3958807;29;20065;-68
2023/08/21 08:14:51;;;;;;;;;;;;;;;25.53;64.51;101792.03;3974176;29;20468;-68
2023/08/21 08:16:53;;;;;;;;;;;;;;;25.54;64.32;101788.16;3969023;29;20032;-69
2023/08/21 08:18:55;;;;;;;;;;;;;;;25.58;63.31;101795.94;3968748;29;19929;-69
2023/08/21 08:20:57;;;;;;;;;;;;;;;25.60;63.14;101793.78;3968998;29;20028;-69
2023/08/21 08:22:59;;;;;;;;;;;;;;;25.61;62.18;101790.78;3968901;29;20481;-69
2023/08/21 08:25:01;;;;;;;;;;;;;;;25.63;61.35;101787.75;3969281;29;19930;-69
2023/08/21 08:27:03;;;;;;;;;;;;;;;25.65;60.69;101802.16;3973628;29;20373;-69
2023/08/21 08:29:06;;;;;;;;;;;;;;;25.65;59.33;101797.47;3969201;29;20069;-69
2023/08/21 08:31:16;;;;;;;;;;;;;;;25.67;59.77;101792.53;3968046;29;20056;-69
2023/08/21 08:33:20;;;;;;;;;;;;;;;25.70;59.91;101791.16;3968729;29;20020;-68
2023/08/21 08:35:23;;;;;;;;;;;;;;;25.71;58.78;101787.31;3968944;29;20057;-69
2023/08/21 08:37:25;;;;;;;;;;;;;;;25.75;59.63;101787.63;3973478;29;20020;-69
2023/08/21 08:39:28;;;;;;;;;;;;;;;25.77;59.43;101791.84;3972613;29;20399;-69
2023/08/21 08:41:30;;;;;;;;;;;;;;;25.80;58.79;101796.00;3973951;29;20036;-69
2023/08/21 08:43:32;;;;;;;;;;;;;;;25.83;58.97;101798.28;3969887;29;20468;-69
2023/08/21 08:45:35;;;;;;;;;;;;;;;25.84;58.26;101798.03;3968496;29;20024;-68
2023/08/21 08:47:38;;;;;;;;;;;;;;;25.87;58.59;101799.44;3968080;29;20024;-68
2023/08/21 08:49:41;;;;;;;;;;;;;;;25.89;58.68;101792.59;3968339;29;20024;-69
2023/08/21 08:51:42;;;;;;;;;;;;;;;25.93;58.90;101792.91;3968210;29;20016;-68
2023/08/21 08:53:45;;;;;;;;;;;;;;;25.94;57.79;101793.72;3968757;29;20024;-68
2023/08/21 08:55:47;;;;;;;;;;;;;;;25.95;56.78;101798.19;3968682;29;20362;-68
2023/08/21 08:57:49;;;;;;;;;;;;;;;25.95;56.37;101796.25;3967992;29;20037;-69
2023/08/21 08:59:51;;;;;;;;;;;;;;;25.97;56.34;101802.41;3967914;29;19933;-68
2023/08/21 09:01:53;;;;;;;;;;;;;;;25.99;56.01;101802.16;3968264;29;20012;-68
2023/08/21 09:03:56;;;;;;;;;;;;;;;26.00;55.28;101795.50;3968465;29;20333;-68
2023/08/21 09:06:00;;;;;;;;;;;;;;;26.03;55.51;101801.34;3967789;29;20032;-68
2023/08/21 09:08:10;;;;;;;;;;;;;;;26.04;53.70;101793.91;3958695;29;19964;-67
2023/08/21 09:10:16;;;;;;;;;;;;;;;26.06;54.66;101789.78;3968637;29;20017;-67
2023/08/21 09:12:18;;;;;;;;;;;;;;;26.06;54.25;101798.09;3967528;29;20024;-68
2023/08/21 09:14:26;;;;;;;;;;;;;;;26.08;53.22;101800.59;3968244;29;19955;-69
2023/08/21 09:16:31;;;;;;;;;;;;;;;26.11;54.15;101796.50;3968185;29;20012;-69
2023/08/21 09:18:35;;;;;;;;;;;;;;;26.14;54.47;101793.22;3968671;29;20020;-68
2023/08/21 09:20:38;;;;;;;;;;;;;;;26.15;54.74;101790.19;3968682;29;20484;-69
2023/08/21 09:22:40;;;;;;;;;;;;;;;26.21;56.73;101791.09;3968631;29;20048;-68
2023/08/21 09:24:59;;;;;;;;;;;;;;;26.22;56.19;101788.06;3967524;29;20621;-69
2023/08/21 09:27:02;;;;;;;;;;;;;;;26.25;55.91;101781.16;3967687;29;20020;-69
2023/08/21 09:29:05;;;;;;;;;;;;;;;26.28;56.17;101782.59;3967788;29;20033;-68
2023/08/21 09:31:06;;;;;;;;;;;;;;;26.33;57.06;101785.41;3967313;29;20032;-69
2023/08/21 09:33:09;;;;;;;;;;;;;;;26.36;56.55;101782.13;3967345;29;20452;-69
2023/08/21 09:35:14;;;;;;;;;;;;;;;26.39;57.02;101776.91;3968329;29;19950;-69
2023/08/21 09:37:18;;;;;;;;;;;;;;;26.42;57.32;101779.16;3967871;29;20019;-69
2023/08/21 09:39:20;;;;;;;;;;;;;;;26.45;57.38;101775.03;3968528;29;20012;-69
2023/08/21 09:41:22;;;;;;;;;;;;;;;26.46;54.80;101776.72;3957441;29;20421;-68
2023/08/21 09:43:26;;;;;;;;;;;;;;;26.48;53.77;101777.31;3967809;29;20031;-68
2023/08/21 09:45:28;;;;;;;;;;;;;;;26.52;54.63;101772.06;3966314;29;20439;-68
2023/08/21 09:47:30;;;;;;;;;;;;;;;26.54;54.57;101775.44;3967813;29;19938;-69
2023/08/21 09:49:32;;;;;;;;;;;;;;;26.56;53.21;101776.84;3967335;29;20012;-68
2023/08/21 09:51:34;;;;;;;;;;;;;;;26.58;54.60;101777.44;3967890;29;20024;-68
2023/08/21 09:53:37;;;;;;;;;;;;;;;26.59;54.56;101773.53;3968933;29;20016;-68
2023/08/21 09:55:40;;;;;;;;;;;;;;;26.60;54.79;101772.47;3966398;29;20024;-68
2023/08/21 09:57:42;;;;;;;;;;;;;;;26.60;51.73;101771.63;3967878;29;20049;-69
2023/08/21 09:59:44;;;;;;;;;;;;;;;26.64;53.83;101769.16;3966487;29;20485;-68
2023/08/21 10:01:46;;;;;;;;;;;;;;;26.67;56.25;101772.28;3967771;29;20480;-69
2023/08/21 10:03:48;;;;;;;;;;;;;;;26.70;55.54;101763.44;3967857;29;20408;-68
2023/08/21 10:05:49;;;;;;;;;;;;;;;26.74;56.35;101766.53;3968177;29;20019;-68
2023/08/21 10:07:52;;;;;;;;;;;;;;;26.76;56.79;101764.34;3968161;29;20016;-69
2023/08/21 10:09:55;;;;;;;;;;;;;;;26.78;56.67;101757.41;3952039;29;19934;-69
2023/08/21 10:11:57;;;;;;;;;;;;;;;26.83;55.98;101758.59;3968429;29;20472;-68
2023/08/21 10:13:59;;;;;;;;;;;;;;;26.84;56.85;101761.09;3967428;29;20027;-67
2023/08/21 10:16:01;;;;;;;;;;;;;;;26.89;56.36;101765.84;3967828;29;20028;-68
2023/08/21 10:18:19;;;;;;;;;;;;;;;26.91;56.35;101766.41;3967321;29;20024;-68
2023/08/21 10:20:22;;;;;;;;;;;;;;;26.93;55.85;101762.28;3965394;29;20033;-69
2023/08/21 10:22:38;;;;;;;;;;;;;;;26.95;55.44;101760.09;3967677;29;19933;-69
2023/08/21 10:24:40;;;;;;;;;;;;;;;26.97;55.33;101760.69;3973086;29;19936;-69
2023/08/21 10:26:48;;;;;;;;;;;;;;;27.01;55.13;101766.53;3968012;29;20484;-69
2023/08/21 10:28:50;;;;;;;;;;;;;;;27.03;55.15;101769.03;3967914;29;20020;-68
2023/08/21 10:30:52;;;;;;;;;;;;;;;27.04;55.44;101760.47;3967185;29;20031;-69
2023/08/21 10:32:54;;;;;;;;;;;;;;;27.06;55.41;101765.75;3968111;29;20432;-69